Time;durP1;ratioP1;P1;durP2;ratioP2;P2;SDS_P1;SDS_P2;PMS_P1;PMS_P2;Temp;Humidity;BMP_temperature;BMP_pressure;BME280_temperature;BME280_humidity;BME280_pressure;Samples;Min_cycle;Max_cycle;Signal;HPM_P1;HPM_P2
2022/07/06 00:01:51;;;;;;;6.18;3.90;;;;;;;13.36;70.23;94488.13;5048197;28;20044;-68
2022/07/06 00:04:18;;;;;;;5.28;4.20;;;;;;;13.33;70.16;94489.00;5040070;28;20037;-68
2022/07/06 00:06:45;;;;;;;6.03;4.77;;;;;;;13.31;69.55;94483.88;5043275;28;20051;-68
2022/07/06 00:09:12;;;;;;;6.20;4.22;;;;;;;13.33;69.80;94491.75;5034132;28;20065;-68
2022/07/06 00:11:39;;;;;;;7.75;4.25;;;;;;;13.22;69.82;94502.13;5027872;28;20050;-68
2022/07/06 00:14:06;;;;;;;5.95;3.90;;;;;;;13.14;69.42;94505.00;5034664;28;20040;-68
2022/07/06 00:16:32;;;;;;;37.40;21.95;;;;;;;13.19;69.55;94496.25;5045068;28;20101;-69
2022/07/06 00:18:59;;;;;;;9.70;6.10;;;;;;;13.22;69.46;94508.44;5036240;28;20102;-68
2022/07/06 00:21:26;;;;;;;7.13;4.40;;;;;;;13.13;69.97;94508.94;5048507;28;20052;-68
2022/07/06 00:23:53;;;;;;;7.28;5.78;;;;;;;13.15;69.93;94503.03;5047755;28;20053;-68
2022/07/06 00:26:20;;;;;;;7.38;5.43;;;;;;;13.19;69.38;94487.22;5035225;28;20054;-68
2022/07/06 00:28:46;;;;;;;7.97;4.75;;;;;;;13.07;69.92;94499.59;5025892;28;20060;-68
2022/07/06 00:31:13;;;;;;;7.83;5.27;;;;;;;13.05;69.71;94499.22;5019078;28;20387;-68
2022/07/06 00:33:40;;;;;;;6.00;5.05;;;;;;;13.04;70.15;94499.66;5036542;28;20049;-68
2022/07/06 00:36:07;;;;;;;7.50;4.90;;;;;;;13.07;69.96;94496.84;5043098;28;20068;-68
2022/07/06 00:38:34;;;;;;;6.68;4.70;;;;;;;12.99;70.29;94495.41;5045243;28;20053;-68
2022/07/06 00:41:00;;;;;;;6.53;4.68;;;;;;;13.06;70.23;94492.53;5051140;28;20049;-68
2022/07/06 00:43:27;;;;;;;6.07;4.47;;;;;;;12.99;70.32;94500.91;5038223;28;20051;-69
2022/07/06 00:45:57;;;;;;;8.02;4.95;;;;;;;12.93;70.87;94500.59;5050621;28;20041;-68
2022/07/06 00:48:25;;;;;;;68.43;40.75;;;;;;;12.96;70.84;94497.00;5034683;28;20048;-69
2022/07/06 00:50:51;;;;;;;12.73;8.82;;;;;;;12.94;70.90;94502.16;5051176;28;20401;-69
2022/07/06 00:53:18;;;;;;;8.07;4.70;;;;;;;12.92;70.30;94496.28;5051876;28;20040;-69
2022/07/06 00:55:45;;;;;;;6.07;4.30;;;;;;;12.88;70.54;94492.81;5049687;28;20045;-68
2022/07/06 00:58:12;;;;;;;5.47;3.95;;;;;;;12.87;70.51;94495.97;5044725;28;20053;-69
2022/07/06 01:00:44;;;;;;;6.03;4.15;;;;;;;12.72;70.92;94490.69;5042625;28;20067;-67
2022/07/06 01:03:11;;;;;;;6.57;3.72;;;;;;;12.34;73.59;94493.53;5051937;28;20045;-67
2022/07/06 01:05:38;;;;;;;5.25;4.10;;;;;;;12.27;73.52;94496.38;5051689;28;20045;-66
2022/07/06 01:08:05;;;;;;;7.23;4.50;;;;;;;12.08;75.27;94489.53;5050804;28;20366;-66
2022/07/06 01:10:32;;;;;;;6.50;4.40;;;;;;;12.18;74.70;94496.88;5030040;28;20057;-66
2022/07/06 01:12:58;;;;;;;6.28;4.63;;;;;;;12.26;74.30;94505.84;5050608;28;20053;-67
2022/07/06 01:15:25;;;;;;;6.72;4.60;;;;;;;12.41;73.70;94503.66;5050060;28;20045;-69
2022/07/06 01:17:53;;;;;;;5.82;4.70;;;;;;;12.36;73.60;94498.63;5036475;28;20114;-66
2022/07/06 01:20:22;;;;;;;6.93;5.30;;;;;;;12.30;73.50;94490.06;5051538;28;20041;-67
2022/07/06 01:22:50;;;;;;;7.43;5.05;;;;;;;12.34;73.81;94496.28;5050853;28;20056;-68
2022/07/06 01:25:18;;;;;;;6.10;5.10;;;;;;;12.46;72.80;94489.47;5051335;28;20091;-69
2022/07/06 01:27:46;;;;;;;6.72;5.30;;;;;;;12.45;72.82;94487.88;5050648;28;20341;-68
2022/07/06 01:30:15;;;;;;;6.15;4.57;;;;;;;12.42;72.78;94496.22;5051218;28;20668;-68
2022/07/06 01:32:42;;;;;;;5.67;4.40;;;;;;;12.38;72.83;94496.25;5049797;28;20063;-68
2022/07/06 01:35:13;;;;;;;13.73;8.95;;;;;;;12.35;73.25;94494.31;5041915;28;20041;-68
2022/07/06 01:37:41;;;;;;;10.95;5.90;;;;;;;12.28;73.62;94486.94;5049560;28;20045;-68
2022/07/06 01:40:09;;;;;;;5.97;4.63;;;;;;;12.26;74.08;94492.06;5042101;28;20569;-68
2022/07/06 01:42:37;;;;;;;6.93;4.47;;;;;;;12.13;74.28;94488.28;5030847;28;20046;-68
2022/07/06 01:45:04;;;;;;;7.23;5.20;;;;;;;12.04;73.72;94486.06;5029289;28;20067;-69
2022/07/06 01:47:32;;;;;;;7.90;5.15;;;;;;;12.10;73.36;94480.88;5030327;28;20060;-68
2022/07/06 01:50:01;;;;;;;6.45;4.90;;;;;;;12.10;73.67;94478.13;5035794;28;20473;-68
2022/07/06 01:52:27;;;;;;;6.82;4.30;;;;;;;11.99;74.08;94480.97;5050958;28;20041;-69
2022/07/06 01:54:56;;;;;;;6.65;4.20;;;;;;;11.84;75.13;94483.09;5048980;28;20040;-69
2022/07/06 01:57:23;;;;;;;5.43;4.00;;;;;;;11.85;75.16;94475.63;5044932;28;20047;-69
2022/07/06 01:59:50;;;;;;;6.55;4.50;;;;;;;11.88;74.94;94486.59;5042220;28;20071;-69
2022/07/06 02:02:17;;;;;;;7.35;4.40;;;;;;;11.86;75.13;94477.19;5050516;28;20060;-68
2022/07/06 02:04:44;;;;;;;6.15;4.30;;;;;;;11.79;75.69;94484.34;5050030;28;20037;-69
2022/07/06 02:07:11;;;;;;;5.80;4.38;;;;;;;11.86;74.97;94485.44;5050176;28;20041;-69
2022/07/06 02:09:37;;;;;;;6.77;4.83;;;;;;;11.93;75.07;94477.94;5031847;28;20037;-69
2022/07/06 02:12:05;;;;;;;7.47;4.90;;;;;;;11.90;74.55;94475.97;5029612;28;20911;-69
2022/07/06 02:14:31;;;;;;;7.53;5.45;;;;;;;11.90;74.59;94481.50;5042111;28;20046;-69
2022/07/06 02:16:58;;;;;;;6.47;4.85;;;;;;;11.92;74.51;94475.59;5042158;28;21533;-68
2022/07/06 02:19:25;;;;;;;6.78;4.95;;;;;;;11.95;74.35;94481.06;5050588;28;20043;-68
2022/07/06 02:21:51;;;;;;;7.07;4.73;;;;;;;11.93;73.75;94474.38;5049733;28;20045;-68
2022/07/06 02:24:18;;;;;;;7.78;4.78;;;;;;;11.91;74.40;94471.25;5049104;28;20397;-66
2022/07/06 02:26:45;;;;;;;8.82;5.60;;;;;;;11.89;74.21;94470.88;5049721;28;20037;-69
2022/07/06 02:29:12;;;;;;;7.97;5.00;;;;;;;11.90;74.51;94475.22;5049874;28;20047;-68
2022/07/06 02:31:39;;;;;;;7.82;5.45;;;;;;;11.88;74.73;94480.31;5049419;28;20421;-69
2022/07/06 02:34:06;;;;;;;7.27;5.10;;;;;;;11.84;74.52;94479.56;5045500;28;20041;-68
2022/07/06 02:36:33;;;;;;;6.53;5.20;;;;;;;11.80;74.35;94480.38;5050056;28;20041;-68
2022/07/06 02:38:59;;;;;;;7.18;5.13;;;;;;;11.78;74.32;94484.75;5048007;28;20051;-69
2022/07/06 02:41:26;;;;;;;7.10;5.53;;;;;;;11.67;74.84;94484.84;5031979;28;20053;-68
2022/07/06 02:43:53;;;;;;;7.80;5.65;;;;;;;11.64;74.76;94490.38;5033407;28;20045;-68
2022/07/06 02:46:20;;;;;;;8.63;5.27;;;;;;;11.66;74.73;94485.25;5037167;28;20041;-68
2022/07/06 02:48:46;;;;;;;7.65;5.30;;;;;;;11.55;75.36;94488.09;5042405;28;20041;-68
2022/07/06 02:51:13;;;;;;;9.45;5.25;;;;;;;11.53;75.60;94490.47;5040435;28;20440;-68
2022/07/06 02:53:40;;;;;;;8.27;5.60;;;;;;;11.51;75.17;94492.84;5049122;28;20056;-69
2022/07/06 02:56:07;;;;;;;10.30;7.25;;;;;;;11.48;75.50;94496.44;5049387;28;20037;-68
2022/07/06 02:58:33;;;;;;;9.80;6.27;;;;;;;11.41;75.77;94497.28;5034615;28;20057;-68
2022/07/06 03:01:00;;;;;;;9.30;5.60;;;;;;;11.37;75.75;94502.03;5048857;28;20041;-68
2022/07/06 03:03:27;;;;;;;7.13;5.38;;;;;;;11.29;76.65;94506.00;5037615;28;20045;-66
2022/07/06 03:05:54;;;;;;;7.93;5.40;;;;;;;11.39;76.06;94505.94;5047077;28;20064;-67
2022/07/06 03:08:20;;;;;;;7.63;5.30;;;;;;;11.44;75.54;94504.69;5048277;28;20045;-67
2022/07/06 03:10:48;;;;;;;8.20;5.57;;;;;;;11.39;75.67;94502.41;5035345;28;20048;-67
2022/07/06 03:13:14;;;;;;;8.25;5.80;;;;;;;11.41;75.60;94500.03;5049004;28;20115;-68
2022/07/06 03:15:41;;;;;;;7.97;5.60;;;;;;;11.36;75.55;94492.22;5034674;28;20058;-69
2022/07/06 03:18:08;;;;;;;9.30;6.35;;;;;;;11.36;76.03;94498.47;5047642;28;20040;-69
2022/07/06 03:20:35;;;;;;;9.30;6.10;;;;;;;11.39;75.59;94497.69;5048969;28;20049;-69
2022/07/06 03:23:02;;;;;;;9.33;6.53;;;;;;;11.39;75.52;94499.66;5048227;28;20040;-69
2022/07/06 03:25:28;;;;;;;10.63;6.55;;;;;;;11.40;75.47;94495.72;5032719;28;20050;-69
2022/07/06 03:27:55;;;;;;;10.43;6.85;;;;;;;11.42;75.17;94496.09;5021377;28;20045;-70
2022/07/06 03:30:22;;;;;;;11.00;7.10;;;;;;;11.39;75.24;94497.69;5029197;28;20052;-69
2022/07/06 03:32:48;;;;;;;9.45;6.57;;;;;;;11.40;75.13;94498.47;5025406;28;20049;-67
2022/07/06 03:35:15;;;;;;;8.27;6.00;;;;;;;11.40;75.17;94493.75;5022485;28;20048;-67
2022/07/06 03:37:42;;;;;;;8.13;6.03;;;;;;;11.42;75.09;94498.06;5045529;28;20405;-67
2022/07/06 03:40:09;;;;;;;11.27;6.38;;;;;;;11.33;75.57;94490.28;5040756;28;20044;-67
2022/07/06 03:42:36;;;;;;;8.02;6.00;;;;;;;11.28;76.10;94498.97;5029836;28;20508;-66
2022/07/06 03:45:04;;;;;;;7.95;5.75;;;;;;;11.39;75.46;94499.66;5032530;28;20041;-67
2022/07/06 03:47:31;;;;;;;8.30;5.80;;;;;;;11.45;74.93;94499.97;5048097;28;20053;-67
2022/07/06 03:49:58;;;;;;;8.10;6.38;;;;;;;11.47;74.68;94500.34;5032278;28;20053;-67
2022/07/06 03:52:24;;;;;;;9.10;6.45;;;;;;;11.48;74.76;94501.94;5049027;28;20049;-69
2022/07/06 03:54:51;;;;;;;7.70;6.13;;;;;;;11.49;74.38;94496.03;5048637;28;20048;-67
2022/07/06 03:57:18;;;;;;;9.80;6.50;;;;;;;11.54;74.38;94501.06;5041182;28;20049;-66
2022/07/06 03:59:44;;;;;;;8.43;6.37;;;;;;;11.54;74.55;94494.81;5041908;28;20409;-67
2022/07/06 04:02:11;;;;;;;10.52;6.20;;;;;;;11.54;74.64;94500.28;5044821;28;20406;-68
2022/07/06 04:04:38;;;;;;;9.35;5.75;;;;;;;11.45;74.97;94491.72;5038676;28;20045;-68
2022/07/06 04:07:05;;;;;;;12.93;6.03;;;;;;;11.52;74.99;94497.94;5047836;28;20247;-68
2022/07/06 04:09:31;;;;;;;12.00;7.35;;;;;;;11.60;74.99;94506.91;5017971;28;20512;-68
2022/07/06 04:11:58;;;;;;;11.07;7.40;;;;;;;11.65;74.80;94506.47;5044633;28;20040;-67
2022/07/06 04:14:27;;;;;;;11.02;7.03;;;;;;;11.72;74.51;94511.91;5047194;28;20148;-67
2022/07/06 04:16:53;;;;;;;9.80;7.20;;;;;;;11.79;74.09;94509.09;5043657;28;20041;-67
2022/07/06 04:19:20;;;;;;;10.63;7.30;;;;;;;11.77;74.08;94505.16;5052046;28;20192;-67
2022/07/06 04:21:47;;;;;;;9.43;7.10;;;;;;;11.89;73.55;94501.94;5052100;28;20057;-66
2022/07/06 04:24:14;;;;;;;8.80;6.27;;;;;;;11.78;73.90;94510.25;5052324;28;20053;-67
2022/07/06 04:26:41;;;;;;;9.88;5.95;;;;;;;11.69;74.80;94507.22;5037211;28;20041;-69
2022/07/06 04:29:07;;;;;;;11.93;6.40;;;;;;;11.82;74.17;94503.94;5051949;28;20059;-67
2022/07/06 04:31:34;;;;;;;16.15;6.70;;;;;;;11.99;73.96;94506.53;5052387;28;20052;-67
2022/07/06 04:34:01;;;;;;;9.73;6.38;;;;;;;12.12;73.28;94506.00;5039395;28;20041;-67
2022/07/06 04:36:28;;;;;;;10.17;6.20;;;;;;;12.60;72.16;94510.50;5044290;28;20076;-67
2022/07/06 04:38:54;;;;;;;9.50;5.90;;;;;;;12.82;70.47;94510.19;5051076;28;20055;-67
2022/07/06 04:41:21;;;;;;;10.02;5.80;;;;;;;13.09;69.39;94499.97;5034460;28;20428;-68
2022/07/06 04:43:48;;;;;;;8.90;5.40;;;;;;;13.34;68.83;94501.56;5017547;28;20061;-68
2022/07/06 04:46:14;;;;;;;12.40;6.38;;;;;;;13.37;69.34;94500.72;5037048;28;20052;-67
2022/07/06 04:48:42;;;;;;;8.37;5.90;;;;;;;13.50;68.60;94496.19;5044086;28;20049;-67
2022/07/06 04:51:08;;;;;;;8.77;5.50;;;;;;;13.49;69.04;94499.34;5043972;28;20147;-67
2022/07/06 04:53:36;;;;;;;9.13;5.50;;;;;;;13.28;69.07;94503.19;5051908;28;20528;-67
2022/07/06 04:56:04;;;;;;;7.97;5.60;;;;;;;13.46;68.83;94489.97;5049891;28;20495;-67
2022/07/06 04:58:30;;;;;;;6.85;5.25;;;;;;;13.60;68.21;94497.19;5037813;28;20049;-67
2022/07/06 05:00:57;;;;;;;7.70;5.33;;;;;;;13.58;68.40;94500.38;5051439;28;20037;-68
2022/07/06 05:03:24;;;;;;;8.10;5.80;;;;;;;13.58;68.22;94505.09;5051495;28;20053;-67
2022/07/06 05:05:51;;;;;;;9.32;6.30;;;;;;;13.95;67.34;94506.03;5049657;28;20045;-67
2022/07/06 05:08:20;;;;;;;8.27;6.30;;;;;;;13.61;68.48;94511.75;5051572;28;20045;-69
2022/07/06 05:10:48;;;;;;;10.10;6.75;;;;;;;13.49;68.70;94507.63;5044348;28;20049;-67
2022/07/06 05:13:15;;;;;;;13.27;7.60;;;;;;;13.55;68.56;94506.72;5051177;28;20037;-68
2022/07/06 05:15:42;;;;;;;11.52;6.95;;;;;;;13.73;68.33;94509.16;5035523;28;20041;-67
2022/07/06 05:18:08;;;;;;;11.23;7.32;;;;;;;13.77;68.21;94509.88;5050897;28;20037;-69
2022/07/06 05:20:35;;;;;;;9.98;6.75;;;;;;;14.09;67.39;94505.75;5049305;28;20044;-68
2022/07/06 05:23:02;;;;;;;11.82;7.10;;;;;;;14.09;67.68;94507.75;5049863;28;20261;-68
2022/07/06 05:25:29;;;;;;;10.43;7.60;;;;;;;15.68;62.41;94508.59;5051407;28;20116;-68
2022/07/06 05:27:57;;;;;;;9.80;6.70;;;;;;;19.15;52.49;94498.75;5050488;28;20053;-69
2022/07/06 05:30:23;;;;;;;8.68;5.55;;;;;;;21.34;46.48;94495.69;5051238;28;20700;-69
2022/07/06 05:32:50;;;;;;;7.53;5.70;;;;;;;21.86;45.80;94497.63;5047164;28;20053;-70
2022/07/06 05:35:17;;;;;;;7.78;5.40;;;;;;;22.11;44.91;94505.53;5048599;28;20041;-69
2022/07/06 05:38:04;;;;;;;8.60;5.70;;;;;;;21.41;43.99;94497.38;5049859;28;21938;-70
2022/07/06 05:40:31;;;;;;;8.80;5.78;;;;;;;20.52;46.39;94503.03;5050706;28;20101;-69
2022/07/06 05:42:58;;;;;;;6.63;5.18;;;;;;;20.50;46.95;94497.16;5050552;28;20049;-69
2022/07/06 05:45:24;;;;;;;8.32;5.70;;;;;;;21.66;43.56;94503.81;5050703;28;20044;-69
2022/07/06 05:50:36;;;;;;;10.70;6.40;;;;;;;18.77;49.04;94506.13;5040121;28;20053;-70
2022/07/06 05:53:04;;;;;;;8.85;6.25;;;;;;;19.84;47.75;94502.38;5048281;28;20489;-69
2022/07/06 05:55:43;;;;;;;9.05;5.90;;;;;;;21.81;43.08;94499.06;5050388;28;20040;-70
2022/07/06 05:58:10;;;;;;;7.90;5.63;;;;;;;22.30;41.50;94502.63;5050541;28;20033;-70
2022/07/06 06:00:36;;;;;;;9.35;5.80;;;;;;;20.63;44.57;94499.78;5050810;28;20400;-67
2022/07/06 06:03:03;;;;;;;7.03;5.60;;;;;;;21.55;43.03;94504.34;5050402;28;20508;-69
2022/07/06 06:05:30;;;;;;;7.15;5.45;;;;;;;20.89;43.60;94503.00;5047198;28;20045;-69
2022/07/06 06:07:57;;;;;;;9.25;5.63;;;;;;;23.06;40.18;94500.22;5028587;28;20045;-69
2022/07/06 06:10:24;;;;;;;6.78;4.63;;;;;;;25.23;36.46;94506.88;5026468;28;20042;-69
2022/07/06 06:12:51;;;;;;;6.88;5.60;;;;;;;19.87;46.10;94518.94;5029246;28;20057;-69
2022/07/06 06:15:18;;;;;;;8.93;6.10;;;;;;;20.91;44.24;94513.69;5047427;28;20410;-69
2022/07/06 06:17:45;;;;;;;6.88;5.05;;;;;;;22.74;41.43;94518.72;5034354;28;20047;-69
2022/07/06 06:20:13;;;;;;;8.07;5.50;;;;;;;24.98;36.64;94513.25;5049047;28;20047;-69
2022/07/06 06:22:47;;;;;;;7.50;5.57;;;;;;;23.64;37.42;94517.44;5049948;28;20056;-69
2022/07/06 06:25:16;;;;;;;12.15;5.85;;;;;;;22.78;39.74;94518.50;5018334;28;20043;-70
2022/07/06 06:27:43;;;;;;;9.40;5.10;;;;;;;26.53;34.48;94507.66;5042490;28;20508;-68
2022/07/06 06:30:11;;;;;;;6.50;4.88;;;;;;;21.44;43.01;94512.44;5037562;28;20041;-67
2022/07/06 06:32:37;;;;;;;9.60;4.97;;;;;;;27.17;33.42;94508.06;5029431;28;20049;-69
2022/07/06 06:35:05;;;;;;;7.65;4.60;;;;;;;27.72;31.59;94502.94;5029198;28;20056;-68
2022/07/06 06:37:34;;;;;;;6.95;5.18;;;;;;;22.01;42.13;94511.66;5044212;28;20045;-68
2022/07/06 06:40:01;;;;;;;7.67;5.30;;;;;;;26.05;34.06;94505.66;5049516;28;20162;-66
2022/07/06 06:42:28;;;;;;;7.47;4.90;;;;;;;25.45;35.55;94503.44;5033474;28;20041;-66
2022/07/06 06:44:54;;;;;;;7.22;4.20;;;;;;;25.95;34.29;94507.13;5031736;28;20049;-65
2022/07/06 06:47:21;;;;;;;7.53;5.38;;;;;;;20.85;43.29;94505.16;5049370;28;20032;-65
2022/07/06 06:49:48;;;;;;;8.90;5.32;;;;;;;20.76;44.70;94507.97;5049215;28;20053;-65
2022/07/06 06:52:15;;;;;;;6.77;5.00;;;;;;;22.53;41.14;94512.97;5049672;28;20059;-64
2022/07/06 06:55:01;;;;;;;8.57;5.50;;;;;;;21.20;43.53;94506.78;5049264;28;20036;-66
2022/07/06 06:57:28;;;;;;;7.28;4.90;;;;;;;22.01;42.40;94514.44;5050057;28;20534;-65
2022/07/06 06:59:55;;;;;;;8.30;4.97;;;;;;;23.57;39.10;94505.84;5048117;28;20045;-66
2022/07/06 07:02:22;;;;;;;7.93;4.68;;;;;;;26.84;33.96;94509.56;5049813;28;20036;-64
2022/07/06 07:04:49;;;;;;;7.10;4.77;;;;;;;26.21;34.24;94513.41;5049095;28;20045;-65
2022/07/06 07:07:16;;;;;;;6.50;4.40;;;;;;;26.07;34.81;94517.16;5049245;28;20067;-65
2022/07/06 07:09:43;;;;;;;6.00;4.30;;;;;;;26.37;33.93;94513.97;5025190;28;20060;-66
2022/07/06 07:12:11;;;;;;;6.13;4.50;;;;;;;25.43;35.91;94503.16;5019511;28;20041;-65
2022/07/06 07:14:38;;;;;;;8.80;4.50;;;;;;;28.65;31.13;94504.53;5038227;28;20486;-66
2022/07/06 07:17:05;;;;;;;7.33;4.80;;;;;;;24.20;37.06;94509.03;5017922;28;20046;-65
2022/07/06 07:19:32;;;;;;;8.68;4.82;;;;;;;22.74;41.15;94510.34;5031387;28;20044;-65
2022/07/06 07:21:59;;;;;;;8.10;4.55;;;;;;;23.60;39.87;94513.28;5028555;28;20460;-64
2022/07/06 07:24:25;;;;;;;9.48;4.55;;;;;;;24.62;37.66;94518.22;5028229;28;20116;-64
2022/07/06 07:26:52;;;;;;;8.20;5.15;;;;;;;23.90;37.99;94511.97;5017319;28;20129;-65
2022/07/06 07:29:19;;;;;;;6.67;4.80;;;;;;;26.28;34.12;94514.97;5020395;28;20394;-64
2022/07/06 07:31:46;;;;;;;6.32;4.43;;;;;;;27.98;31.54;94502.69;5028718;28;20048;-64
2022/07/06 07:34:12;;;;;;;6.57;4.60;;;;;;;29.03;29.83;94501.97;5027442;28;20041;-65
2022/07/06 07:36:39;;;;;;;6.28;4.20;;;;;;;30.55;28.09;94499.88;5048689;28;20053;-66
2022/07/06 07:39:06;;;;;;;7.88;4.13;;;;;;;29.28;28.96;94502.88;5043641;28;20046;-65
2022/07/06 07:41:33;;;;;;;5.30;3.30;;;;;;;30.40;27.71;94499.53;5038018;28;20053;-66
2022/07/06 07:44:00;;;;;;;4.70;3.50;;;;;;;31.26;26.33;94503.56;5036314;28;20037;-65
2022/07/06 07:46:26;;;;;;;5.63;3.95;;;;;;;30.17;27.76;94496.19;5047547;28;20053;-65
2022/07/06 07:48:53;;;;;;;6.45;3.63;;;;;;;31.31;26.67;94504.75;5048355;28;20041;-66
2022/07/06 07:51:20;;;;;;;7.35;3.83;;;;;;;31.76;25.61;94501.25;5048757;28;20041;-66
2022/07/06 07:53:47;;;;;;;5.83;3.50;;;;;;;30.40;27.30;94491.78;5030744;28;20393;-67
2022/07/06 07:56:13;;;;;;;5.55;3.40;;;;;;;28.83;29.37;94505.94;5047383;28;20059;-68
2022/07/06 07:58:40;;;;;;;5.18;3.60;;;;;;;26.12;34.51;94508.00;5048399;28;20040;-64
2022/07/06 08:01:07;;;;;;;7.40;4.50;;;;;;;24.54;36.49;94509.47;5048703;28;20045;-65
2022/07/06 08:03:34;;;;;;;6.57;3.95;;;;;;;26.72;33.14;94507.97;5048328;28;20067;-66
2022/07/06 08:06:00;;;;;;;6.80;4.80;;;;;;;24.50;36.60;94511.72;5047278;28;20041;-65
2022/07/06 08:08:27;;;;;;;5.75;4.00;;;;;;;26.74;34.15;94504.66;5048653;28;20109;-65
2022/07/06 08:10:54;;;;;;;5.00;3.90;;;;;;;25.68;35.27;94504.38;5038345;28;20044;-65
2022/07/06 08:13:41;;;;;;;7.57;5.90;;;;;;;26.55;34.23;94499.47;5048197;28;20067;-66
2022/07/06 08:16:09;;;;;;;6.20;4.07;;;;;;;28.92;30.59;94502.06;5043352;28;20144;-65
2022/07/06 08:18:37;;;;;;;8.53;3.97;;;;;;;31.85;26.65;94500.81;5039115;28;20055;-66
2022/07/06 08:21:04;;;;;;;5.68;4.05;;;;;;;31.74;26.36;94501.78;5027559;28;20049;-67
2022/07/06 08:23:51;;;;;;;5.90;3.60;;;;;;;32.96;24.62;94501.25;5029774;28;20049;-66
2022/07/06 08:26:18;;;;;;;5.22;3.70;;;;;;;34.76;22.65;94498.84;5041890;28;20049;-67
2022/07/06 08:28:45;;;;;;;5.63;3.25;;;;;;;32.22;25.45;94501.97;5035525;28;20048;-66
2022/07/06 08:31:12;;;;;;;4.90;3.40;;;;;;;32.96;24.50;94499.19;5047110;28;20051;-66
2022/07/06 08:33:59;;;;;;;7.50;3.80;;;;;;;30.37;27.19;94497.78;5036543;28;20106;-66
2022/07/06 08:36:26;;;;;;;4.50;3.58;;;;;;;30.83;26.64;94507.25;5041008;28;20055;-66
2022/07/06 08:38:54;;;;;;;5.80;3.17;;;;;;;32.36;24.83;94499.91;5037983;28;20056;-66
2022/07/06 08:41:23;;;;;;;5.32;3.78;;;;;;;30.71;26.36;94492.47;5048014;28;20049;-66
2022/07/06 08:43:52;;;;;;;8.13;4.17;;;;;;;29.33;28.09;94504.13;5047894;28;20165;-67
2022/07/06 08:46:21;;;;;;;7.63;3.90;;;;;;;33.27;24.21;94498.81;5048299;28;20420;-66
2022/07/06 08:48:49;;;;;;;5.55;3.70;;;;;;;31.02;25.58;94508.03;5048122;28;20045;-66
2022/07/06 08:51:17;;;;;;;6.03;4.05;;;;;;;27.52;30.84;94511.69;5048219;28;20053;-66
2022/07/06 08:53:45;;;;;;;5.20;3.60;;;;;;;32.97;23.22;94499.94;5040668;28;20445;-66
2022/07/06 08:56:13;;;;;;;5.27;3.40;;;;;;;34.37;21.93;94503.53;5043599;28;20094;-68
2022/07/06 08:58:42;;;;;;;6.20;3.40;;;;;;;35.46;21.38;94502.72;5051484;28;20057;-65
2022/07/06 09:01:10;;;;;;;6.45;3.40;;;;;;;35.89;19.97;94498.97;5034482;28;20064;-67
2022/07/06 09:03:41;;;;;;;5.18;3.38;;;;;;;34.78;21.46;94496.22;5050603;28;20049;-66
2022/07/06 09:06:08;;;;;;;4.78;3.30;;;;;;;34.95;20.34;94509.94;5041743;28;20630;-66
2022/07/06 09:08:39;;;;;;;5.57;3.07;;;;;;;34.69;19.50;94500.34;5045946;28;20106;-67
2022/07/06 09:11:06;;;;;;;4.00;2.80;;;;;;;35.70;19.27;94504.28;5024190;28;20672;-67
2022/07/06 09:13:33;;;;;;;3.97;2.60;;;;;;;36.87;17.66;94512.22;5051401;28;20425;-67
2022/07/06 09:16:11;;;;;;;5.03;2.80;;;;;;;32.86;21.44;94512.34;5051068;28;20047;-67
2022/07/06 09:18:57;;;;;;;4.13;3.10;;;;;;;33.78;21.03;94509.72;5045158;28;20425;-66
2022/07/06 09:21:26;;;;;;;3.80;2.77;;;;;;;33.30;21.35;94504.13;5031551;28;20045;-67
2022/07/06 09:23:58;;;;;;;4.75;2.70;;;;;;;34.18;20.22;94510.25;5032385;28;20064;-66
2022/07/06 09:26:26;;;;;;;5.68;2.53;;;;;;;33.97;20.25;94518.81;5019601;28;20038;-67
2022/07/06 09:28:55;;;;;;;4.35;2.50;;;;;;;34.61;19.62;94511.69;5025101;28;20075;-67
2022/07/06 09:31:22;;;;;;;5.50;2.70;;;;;;;35.72;19.01;94530.22;5031350;28;20052;-68
2022/07/06 09:34:01;;;;;;;7.20;2.70;;;;;;;36.34;18.10;94519.53;5020571;28;20053;-67
2022/07/06 09:36:40;;;;;;;4.82;3.22;;;;;;;32.81;21.03;94513.97;5030161;28;20057;-67
2022/07/06 09:39:21;;;;;;;4.25;3.10;;;;;;;30.93;23.26;94522.59;5018520;28;20495;-67
2022/07/06 09:41:59;;;;;;;6.15;3.63;;;;;;;27.29;27.78;94529.38;5030893;28;20050;-66
2022/07/06 09:44:31;;;;;;;4.13;2.97;;;;;;;30.61;24.26;94517.56;5030579;28;20134;-66
2022/07/06 09:47:11;;;;;;;4.30;3.43;;;;;;;27.45;28.03;94522.19;5030640;28;20111;-67
2022/07/06 09:49:39;;;;;;;5.65;3.35;;;;;;;27.59;28.64;94528.09;5031191;28;20053;-67
2022/07/06 09:52:09;;;;;;;5.78;3.50;;;;;;;26.84;29.01;94526.47;5050090;28;20642;-67
2022/07/06 09:54:38;;;;;;;6.38;3.40;;;;;;;28.60;26.53;94524.31;5036555;28;20239;-67
2022/07/06 09:57:05;;;;;;;4.95;3.40;;;;;;;28.52;26.25;94520.50;5043114;28;20649;-66
2022/07/06 09:59:36;;;;;;;4.53;3.20;;;;;;;25.49;29.92;94531.31;5044658;28;20053;-67
2022/07/06 10:02:05;;;;;;;8.50;2.97;;;;;;;25.88;30.84;94523.16;5018727;28;20045;-65
2022/07/06 10:04:32;;;;;;;4.43;3.03;;;;;;;26.57;29.70;94524.28;5050381;28;20358;-66
2022/07/06 10:07:00;;;;;;;11.88;3.17;;;;;;;23.54;33.89;94527.19;5049979;28;20102;-65
2022/07/06 10:09:28;;;;;;;7.25;3.42;;;;;;;23.68;34.46;94539.63;5047093;28;20045;-65
2022/07/06 10:11:58;;;;;;;5.50;3.23;;;;;;;25.14;32.11;94523.84;5043610;28;20055;-65
2022/07/06 10:14:31;;;;;;;5.85;3.17;;;;;;;27.76;29.25;94525.25;5050236;28;20041;-65
2022/07/06 10:17:00;;;;;;;6.90;3.20;;;;;;;29.96;26.28;94524.16;5050339;28;20052;-66
2022/07/06 10:19:29;;;;;;;4.75;3.10;;;;;;;30.37;25.31;94523.28;5048827;28;20102;-66
2022/07/06 10:22:00;;;;;;;5.88;3.08;;;;;;;31.06;25.01;94528.31;5049786;28;20053;-66
2022/07/06 10:24:28;;;;;;;7.57;3.10;;;;;;;31.32;23.99;94534.66;5050145;28;20063;-66
2022/07/06 10:26:55;;;;;;;4.45;2.92;;;;;;;31.11;24.33;94535.22;5049588;28;20033;-66
2022/07/06 10:29:24;;;;;;;4.95;2.80;;;;;;;31.99;23.06;94530.75;5022222;28;20045;-66
2022/07/06 10:31:52;;;;;;;5.72;3.03;;;;;;;29.27;25.93;94532.44;5049732;28;20146;-66
2022/07/06 10:34:19;;;;;;;7.20;3.10;;;;;;;31.28;23.78;94534.22;5036875;28;20041;-66
2022/07/06 10:36:55;;;;;;;4.23;3.10;;;;;;;30.29;24.34;94525.13;5036382;28;20049;-66
2022/07/06 10:42:42;;;;;;;4.93;3.55;;;;;;;27.55;29.02;94531.19;5011230;28;21762;-66
2022/07/06 10:45:11;;;;;;;5.00;3.42;;;;;;;27.64;28.46;94536.53;5019624;28;20355;-65
2022/07/06 10:47:40;;;;;;;5.13;3.25;;;;;;;27.79;28.93;94524.22;5024546;28;20041;-65
2022/07/06 10:50:08;;;;;;;4.10;3.33;;;;;;;28.54;27.31;94523.59;5049243;28;20577;-66
2022/07/06 10:52:51;;;;;;;6.10;3.90;;;;;;;27.40;29.20;94528.59;5048372;28;20067;-63
2022/07/06 10:55:30;;;;;;;6.25;3.83;;;;;;;25.65;31.50;94524.28;5038961;28;20049;-64
2022/07/06 10:57:57;;;;;;;5.25;3.90;;;;;;;24.48;33.56;94526.19;5049440;28;20493;-66
2022/07/06 11:00:24;;;;;;;4.97;3.70;;;;;;;26.27;31.16;94514.19;5048399;28;20041;-65
2022/07/06 11:02:53;;;;;;;5.63;3.60;;;;;;;23.85;34.21;94518.28;5048984;28;20266;-66
2022/07/06 11:05:39;;;;;;;5.70;3.60;;;;;;;25.27;33.64;94515.84;5049655;28;20041;-66
2022/07/06 11:08:44;;;;;;;4.80;3.33;;;;;;;26.78;30.20;94508.75;5048658;28;20588;-66
2022/07/06 11:11:12;;;;;;;6.63;3.40;;;;;;;26.92;30.45;94509.06;5006893;28;20681;-67
2022/07/06 11:14:03;;;;;;;6.65;3.80;;;;;;;25.71;31.72;94506.19;5026419;28;20048;-65
2022/07/06 11:16:34;;;;;;;9.07;3.70;;;;;;;26.10;32.66;94510.53;5029487;28;20052;-66
2022/07/06 11:19:04;;;;;;;8.55;4.10;;;;;;;24.95;33.98;94505.78;5028209;28;20041;-66
2022/07/06 11:21:49;;;;;;;6.82;3.85;;;;;;;26.38;31.92;94502.22;5028078;28;20059;-67
2022/07/06 11:24:19;;;;;;;5.05;4.00;;;;;;;24.30;33.75;94499.22;5028551;28;20057;-66
2022/07/06 11:26:49;;;;;;;5.38;3.67;;;;;;;24.12;35.56;94500.25;5028835;28;20041;-66
2022/07/06 11:29:26;;;;;;;7.37;4.30;;;;;;;23.18;36.68;94495.59;5028920;28;20045;-66
2022/07/06 11:31:55;;;;;;;5.50;3.90;;;;;;;23.60;36.24;94488.06;5028823;28;20053;-67
2022/07/06 11:34:28;;;;;;;6.72;3.63;;;;;;;23.69;37.95;94491.50;5002809;28;20054;-67
2022/07/06 11:37:03;;;;;;;6.88;4.10;;;;;;;24.35;35.11;94485.75;5028671;28;20053;-66
2022/07/06 11:39:33;;;;;;;5.10;3.97;;;;;;;22.32;38.48;94486.91;5028512;28;20050;-66
2022/07/06 11:42:00;;;;;;;6.30;4.20;;;;;;;22.41;38.32;94483.25;5028584;28;20054;-66
2022/07/06 11:44:27;;;;;;;6.20;4.25;;;;;;;21.80;40.32;94489.13;5025381;28;20062;-66